Cambria, Illinois
Current Conditions -  °F | °C
As of 3:15 AM on Monday 24 Nov 2014 (Local Time) from KMWA Reporting Station
Moderate Rain Moderate Rain  
Wind Chill: 57°   Ceiling: 5500
Heat Index: 57°   Visibility: 10mi
Dew Point: 52°   Wind: 17mph
Humidity: 82%   Direction: 230°SW
Pressure: 29.28"   Gusts: 26mph
Location:  37.78°N, 89.12°W
Report Text: KMWA 240915Z AUTO 23015G23KT 10SM RA SCT022 BKN055 OVC070 14/11 A2928 RMK AO2 P0001
Loading
Personal Weather Stations






























Interactive Weather Map New forecast layout! Learn more

10-Day Weather Forecast

Advertisements
Track Severe Weather on mobile